sensor_id;sensor_type;location;lat;lon;timestamp;P1;durP1;ratioP1;P2;durP2;ratioP2
69795;SDS011;57073;45.650;9.612;2023-06-14T00:03:35;7.53;;;4.60;;
69795;SDS011;57073;45.650;9.612;2023-06-14T00:08:35;5.03;;;3.80;;
69795;SDS011;57073;45.650;9.612;2023-06-14T00:13:36;4.90;;;2.77;;
69795;SDS011;57073;45.650;9.612;2023-06-14T00:18:36;2.63;;;2.00;;
69795;SDS011;57073;45.650;9.612;2023-06-14T00:23:36;2.63;;;1.90;;
69795;SDS011;57073;45.650;9.612;2023-06-14T00:28:37;2.20;;;1.67;;
69795;SDS011;57073;45.650;9.612;2023-06-14T00:33:37;3.10;;;1.67;;
69795;SDS011;57073;45.650;9.612;2023-06-14T00:38:37;3.60;;;1.60;;
69795;SDS011;57073;45.650;9.612;2023-06-14T00:43:38;2.13;;;1.53;;
69795;SDS011;57073;45.650;9.612;2023-06-14T00:48:38;2.73;;;1.40;;
69795;SDS011;57073;45.650;9.612;2023-06-14T00:53:40;3.42;;;1.95;;
69795;SDS011;57073;45.650;9.612;2023-06-14T00:58:46;4.35;;;1.40;;
69795;SDS011;57073;45.650;9.612;2023-06-14T01:03:47;2.77;;;1.83;;
69795;SDS011;57073;45.650;9.612;2023-06-14T01:08:49;2.83;;;1.57;;
69795;SDS011;57073;45.650;9.612;2023-06-14T01:13:56;1.55;;;1.20;;
69795;SDS011;57073;45.650;9.612;2023-06-14T01:18:57;2.53;;;1.52;;
69795;SDS011;57073;45.650;9.612;2023-06-14T01:23:58;3.57;;;1.70;;
69795;SDS011;57073;45.650;9.612;2023-06-14T01:28:59;3.20;;;1.98;;
69795;SDS011;57073;45.650;9.612;2023-06-14T01:33:59;5.17;;;2.57;;
69795;SDS011;57073;45.650;9.612;2023-06-14T01:39:00;3.47;;;2.10;;
69795;SDS011;57073;45.650;9.612;2023-06-14T01:44:01;3.67;;;2.50;;
69795;SDS011;57073;45.650;9.612;2023-06-14T01:49:03;4.47;;;3.10;;
69795;SDS011;57073;45.650;9.612;2023-06-14T01:54:04;4.05;;;2.97;;
69795;SDS011;57073;45.650;9.612;2023-06-14T01:59:04;3.83;;;2.67;;
69795;SDS011;57073;45.650;9.612;2023-06-14T02:04:05;5.27;;;2.20;;
69795;SDS011;57073;45.650;9.612;2023-06-14T02:09:05;6.20;;;2.47;;
69795;SDS011;57073;45.650;9.612;2023-06-14T02:14:05;4.80;;;2.10;;
69795;SDS011;57073;45.650;9.612;2023-06-14T02:19:07;3.93;;;1.53;;
69795;SDS011;57073;45.650;9.612;2023-06-14T02:24:07;4.30;;;1.30;;
69795;SDS011;57073;45.650;9.612;2023-06-14T02:29:07;3.77;;;1.50;;
69795;SDS011;57073;45.650;9.612;2023-06-14T02:34:12;3.10;;;1.30;;
69795;SDS011;57073;45.650;9.612;2023-06-14T02:39:12;2.87;;;1.60;;
69795;SDS011;57073;45.650;9.612;2023-06-14T02:44:13;3.78;;;1.77;;
69795;SDS011;57073;45.650;9.612;2023-06-14T02:49:14;4.17;;;1.47;;
69795;SDS011;57073;45.650;9.612;2023-06-14T02:54:15;4.70;;;2.60;;
69795;SDS011;57073;45.650;9.612;2023-06-14T02:59:15;7.17;;;4.00;;
69795;SDS011;57073;45.650;9.612;2023-06-14T03:04:17;7.68;;;4.53;;
69795;SDS011;57073;45.650;9.612;2023-06-14T03:09:17;8.50;;;5.37;;
69795;SDS011;57073;45.650;9.612;2023-06-14T03:14:17;10.17;;;6.23;;
69795;SDS011;57073;45.650;9.612;2023-06-14T03:19:19;11.20;;;7.23;;
69795;SDS011;57073;45.650;9.612;2023-06-14T03:24:19;11.03;;;7.03;;
69795;SDS011;57073;45.650;9.612;2023-06-14T03:29:20;10.50;;;6.90;;
69795;SDS011;57073;45.650;9.612;2023-06-14T03:34:21;8.88;;;6.38;;
69795;SDS011;57073;45.650;9.612;2023-06-14T03:39:22;8.40;;;5.90;;
69795;SDS011;57073;45.650;9.612;2023-06-14T03:44:22;7.57;;;5.43;;
69795;SDS011;57073;45.650;9.612;2023-06-14T03:49:22;10.73;;;5.43;;
69795;SDS011;57073;45.650;9.612;2023-06-14T03:54:23;7.20;;;3.80;;
69795;SDS011;57073;45.650;9.612;2023-06-14T03:59:23;3.95;;;2.70;;
69795;SDS011;57073;45.650;9.612;2023-06-14T04:04:25;5.07;;;2.50;;
69795;SDS011;57073;45.650;9.612;2023-06-14T04:09:31;5.10;;;2.92;;
69795;SDS011;57073;45.650;9.612;2023-06-14T04:14:32;5.67;;;3.40;;
69795;SDS011;57073;45.650;9.612;2023-06-14T04:19:33;5.40;;;3.20;;
69795;SDS011;57073;45.650;9.612;2023-06-14T04:24:33;5.40;;;3.00;;
69795;SDS011;57073;45.650;9.612;2023-06-14T04:29:34;4.72;;;2.67;;
69795;SDS011;57073;45.650;9.612;2023-06-14T04:34:35;3.33;;;2.57;;
69795;SDS011;57073;45.650;9.612;2023-06-14T04:39:37;4.00;;;2.92;;
69795;SDS011;57073;45.650;9.612;2023-06-14T04:44:37;4.50;;;2.67;;
69795;SDS011;57073;45.650;9.612;2023-06-14T04:49:39;4.72;;;2.75;;
69795;SDS011;57073;45.650;9.612;2023-06-14T04:54:40;4.43;;;2.40;;
69795;SDS011;57073;45.650;9.612;2023-06-14T04:59:42;5.55;;;2.80;;
69795;SDS011;57073;45.650;9.612;2023-06-14T05:04:44;3.65;;;2.20;;
69795;SDS011;57073;45.650;9.612;2023-06-14T05:09:45;5.87;;;2.57;;
69795;SDS011;57073;45.650;9.612;2023-06-14T05:14:45;6.32;;;2.88;;
69795;SDS011;57073;45.650;9.612;2023-06-14T05:19:46;5.93;;;3.13;;
69795;SDS011;57073;45.650;9.612;2023-06-14T05:24:46;3.73;;;2.57;;
69795;SDS011;57073;45.650;9.612;2023-06-14T05:29:48;5.47;;;2.88;;
69795;SDS011;57073;45.650;9.612;2023-06-14T05:34:48;3.00;;;2.30;;
69795;SDS011;57073;45.650;9.612;2023-06-14T05:39:49;4.30;;;2.20;;
69795;SDS011;57073;45.650;9.612;2023-06-14T05:44:49;4.27;;;2.40;;
69795;SDS011;57073;45.650;9.612;2023-06-14T05:49:49;6.77;;;2.20;;
69795;SDS011;57073;45.650;9.612;2023-06-14T05:54:50;3.13;;;2.00;;
69795;SDS011;57073;45.650;9.612;2023-06-14T05:59:50;2.63;;;1.70;;
69795;SDS011;57073;45.650;9.612;2023-06-14T06:04:51;2.73;;;1.93;;
69795;SDS011;57073;45.650;9.612;2023-06-14T06:09:51;2.73;;;1.83;;
69795;SDS011;57073;45.650;9.612;2023-06-14T06:14:52;3.07;;;2.00;;
69795;SDS011;57073;45.650;9.612;2023-06-14T06:19:52;4.03;;;2.13;;
69795;SDS011;57073;45.650;9.612;2023-06-14T06:24:52;2.80;;;1.80;;
69795;SDS011;57073;45.650;9.612;2023-06-14T06:29:53;3.00;;;2.00;;
69795;SDS011;57073;45.650;9.612;2023-06-14T06:34:53;5.00;;;2.37;;
69795;SDS011;57073;45.650;9.612;2023-06-14T06:39:53;4.20;;;2.57;;
69795;SDS011;57073;45.650;9.612;2023-06-14T06:44:54;4.77;;;2.03;;
69795;SDS011;57073;45.650;9.612;2023-06-14T06:49:54;2.70;;;1.97;;
69795;SDS011;57073;45.650;9.612;2023-06-14T06:54:55;3.93;;;2.20;;
69795;SDS011;57073;45.650;9.612;2023-06-14T06:59:56;2.30;;;1.60;;
69795;SDS011;57073;45.650;9.612;2023-06-14T07:04:57;3.97;;;1.83;;
69795;SDS011;57073;45.650;9.612;2023-06-14T07:09:57;4.67;;;1.70;;
69795;SDS011;57073;45.650;9.612;2023-06-14T07:14:57;2.80;;;2.10;;
69795;SDS011;57073;45.650;9.612;2023-06-14T07:19:58;3.70;;;2.00;;
69795;SDS011;57073;45.650;9.612;2023-06-14T07:24:58;4.18;;;2.30;;
69795;SDS011;57073;45.650;9.612;2023-06-14T07:29:58;4.73;;;3.10;;
69795;SDS011;57073;45.650;9.612;2023-06-14T07:34:59;5.57;;;3.00;;
69795;SDS011;57073;45.650;9.612;2023-06-14T07:39:59;5.20;;;3.47;;
69795;SDS011;57073;45.650;9.612;2023-06-14T07:44:59;5.00;;;3.80;;
69795;SDS011;57073;45.650;9.612;2023-06-14T07:50:00;5.57;;;3.40;;
69795;SDS011;57073;45.650;9.612;2023-06-14T07:55:00;4.97;;;3.60;;
69795;SDS011;57073;45.650;9.612;2023-06-14T08:00:01;7.30;;;3.90;;
69795;SDS011;57073;45.650;9.612;2023-06-14T08:05:01;8.63;;;4.30;;
69795;SDS011;57073;45.650;9.612;2023-06-14T08:10:02;7.07;;;3.67;;
69795;SDS011;57073;45.650;9.612;2023-06-14T08:15:02;5.85;;;4.03;;
69795;SDS011;57073;45.650;9.612;2023-06-14T08:20:03;6.67;;;4.20;;
69795;SDS011;57073;45.650;9.612;2023-06-14T08:25:05;6.22;;;4.03;;
69795;SDS011;57073;45.650;9.612;2023-06-14T08:30:07;6.25;;;4.53;;
69795;SDS011;57073;45.650;9.612;2023-06-14T08:35:08;8.40;;;4.60;;
69795;SDS011;57073;45.650;9.612;2023-06-14T08:40:30;6.40;;;4.30;;
69795;SDS011;57073;45.650;9.612;2023-06-14T08:45:31;7.77;;;4.60;;
69795;SDS011;57073;45.650;9.612;2023-06-14T08:50:32;6.72;;;4.60;;
69795;SDS011;57073;45.650;9.612;2023-06-14T08:55:36;5.10;;;4.20;;
69795;SDS011;57073;45.650;9.612;2023-06-14T09:00:39;6.85;;;4.38;;
69795;SDS011;57073;45.650;9.612;2023-06-14T09:05:41;13.32;;;5.20;;
69795;SDS011;57073;45.650;9.612;2023-06-14T09:10:42;7.87;;;4.77;;
69795;SDS011;57073;45.650;9.612;2023-06-14T09:15:42;9.63;;;6.40;;
69795;SDS011;57073;45.650;9.612;2023-06-14T09:20:42;7.90;;;5.50;;
69795;SDS011;57073;45.650;9.612;2023-06-14T09:25:43;8.87;;;5.63;;
69795;SDS011;57073;45.650;9.612;2023-06-14T09:30:45;7.20;;;5.30;;
69795;SDS011;57073;45.650;9.612;2023-06-14T09:35:46;8.63;;;5.53;;
69795;SDS011;57073;45.650;9.612;2023-06-14T09:40:50;8.80;;;5.53;;
69795;SDS011;57073;45.650;9.612;2023-06-14T09:45:51;12.33;;;7.27;;
69795;SDS011;57073;45.650;9.612;2023-06-14T09:50:51;8.65;;;6.63;;
69795;SDS011;57073;45.650;9.612;2023-06-14T09:55:55;10.57;;;5.70;;
69795;SDS011;57073;45.650;9.612;2023-06-14T10:00:58;13.77;;;6.10;;
69795;SDS011;57073;45.650;9.612;2023-06-14T10:05:59;7.13;;;5.68;;
69795;SDS011;57073;45.650;9.612;2023-06-14T10:11:03;9.27;;;6.90;;
69795;SDS011;57073;45.650;9.612;2023-06-14T10:21:43;8.75;;;7.00;;
69795;SDS011;57073;45.650;9.612;2023-06-14T10:26:56;8.07;;;5.73;;
69795;SDS011;57073;45.650;9.612;2023-06-14T10:31:58;7.60;;;6.05;;
69795;SDS011;57073;45.650;9.612;2023-06-14T10:37:01;12.32;;;8.40;;
69795;SDS011;57073;45.650;9.612;2023-06-14T10:42:11;9.43;;;7.60;;
69795;SDS011;57073;45.650;9.612;2023-06-14T10:47:20;10.48;;;7.00;;
69795;SDS011;57073;45.650;9.612;2023-06-14T10:52:28;10.82;;;7.60;;
69795;SDS011;57073;45.650;9.612;2023-06-14T10:57:29;13.93;;;9.80;;
69795;SDS011;57073;45.650;9.612;2023-06-14T11:13:28;14.77;;;9.07;;
69795;SDS011;57073;45.650;9.612;2023-06-14T11:18:28;13.15;;;10.20;;
69795;SDS011;57073;45.650;9.612;2023-06-14T11:23:29;10.73;;;8.73;;
69795;SDS011;57073;45.650;9.612;2023-06-14T11:28:39;12.57;;;9.73;;
69795;SDS011;57073;45.650;9.612;2023-06-14T11:33:40;13.93;;;8.87;;
69795;SDS011;57073;45.650;9.612;2023-06-14T11:38:41;13.75;;;9.55;;
69795;SDS011;57073;45.650;9.612;2023-06-14T11:43:41;14.35;;;10.15;;
69795;SDS011;57073;45.650;9.612;2023-06-14T11:48:42;14.77;;;11.23;;
69795;SDS011;57073;45.650;9.612;2023-06-14T11:53:42;12.80;;;9.70;;
69795;SDS011;57073;45.650;9.612;2023-06-14T11:58:43;7.03;;;5.80;;
69795;SDS011;57073;45.650;9.612;2023-06-14T12:03:47;11.63;;;6.97;;
69795;SDS011;57073;45.650;9.612;2023-06-14T12:08:55;11.17;;;7.50;;
69795;SDS011;57073;45.650;9.612;2023-06-14T12:13:56;10.50;;;7.90;;
69795;SDS011;57073;45.650;9.612;2023-06-14T12:18:56;12.95;;;8.68;;
69795;SDS011;57073;45.650;9.612;2023-06-14T12:24:03;11.87;;;7.53;;
69795;SDS011;57073;45.650;9.612;2023-06-14T12:29:04;9.68;;;7.10;;
69795;SDS011;57073;45.650;9.612;2023-06-14T12:34:07;13.05;;;9.38;;
69795;SDS011;57073;45.650;9.612;2023-06-14T12:39:07;13.03;;;9.30;;
69795;SDS011;57073;45.650;9.612;2023-06-14T12:44:09;14.25;;;10.30;;
69795;SDS011;57073;45.650;9.612;2023-06-14T12:49:10;14.60;;;10.80;;
69795;SDS011;57073;45.650;9.612;2023-06-14T12:54:11;15.17;;;9.90;;
69795;SDS011;57073;45.650;9.612;2023-06-14T12:59:12;16.00;;;11.45;;
69795;SDS011;57073;45.650;9.612;2023-06-14T13:04:12;14.53;;;10.70;;
69795;SDS011;57073;45.650;9.612;2023-06-14T13:09:13;13.67;;;10.03;;
69795;SDS011;57073;45.650;9.612;2023-06-14T13:14:15;15.47;;;11.70;;
69795;SDS011;57073;45.650;9.612;2023-06-14T13:19:16;15.68;;;11.70;;
69795;SDS011;57073;45.650;9.612;2023-06-14T13:24:16;15.50;;;12.07;;
69795;SDS011;57073;45.650;9.612;2023-06-14T13:29:17;21.30;;;14.60;;
69795;SDS011;57073;45.650;9.612;2023-06-14T13:34:17;22.67;;;16.67;;
69795;SDS011;57073;45.650;9.612;2023-06-14T13:39:17;24.00;;;17.57;;
69795;SDS011;57073;45.650;9.612;2023-06-14T13:44:18;19.87;;;15.50;;
69795;SDS011;57073;45.650;9.612;2023-06-14T13:49:21;21.90;;;16.42;;
69795;SDS011;57073;45.650;9.612;2023-06-14T13:54:21;20.90;;;15.23;;
69795;SDS011;57073;45.650;9.612;2023-06-14T13:59:22;20.40;;;14.80;;
69795;SDS011;57073;45.650;9.612;2023-06-14T14:04:23;22.50;;;15.60;;
69795;SDS011;57073;45.650;9.612;2023-06-14T14:09:23;20.77;;;16.40;;
69795;SDS011;57073;45.650;9.612;2023-06-14T14:14:23;20.47;;;16.10;;
69795;SDS011;57073;45.650;9.612;2023-06-14T14:19:24;19.23;;;14.88;;
69795;SDS011;57073;45.650;9.612;2023-06-14T14:24:25;19.20;;;14.87;;
69795;SDS011;57073;45.650;9.612;2023-06-14T14:29:25;15.48;;;12.18;;
69795;SDS011;57073;45.650;9.612;2023-06-14T14:34:28;19.08;;;14.23;;
69795;SDS011;57073;45.650;9.612;2023-06-14T14:39:29;18.53;;;14.43;;
69795;SDS011;57073;45.650;9.612;2023-06-14T14:44:30;18.93;;;12.57;;
69795;SDS011;57073;45.650;9.612;2023-06-14T14:49:31;18.87;;;13.10;;
69795;SDS011;57073;45.650;9.612;2023-06-14T14:54:32;16.48;;;12.25;;
69795;SDS011;57073;45.650;9.612;2023-06-14T14:59:32;20.27;;;12.23;;
69795;SDS011;57073;45.650;9.612;2023-06-14T15:04:32;14.00;;;10.63;;
69795;SDS011;57073;45.650;9.612;2023-06-14T15:09:33;13.03;;;9.47;;
69795;SDS011;57073;45.650;9.612;2023-06-14T15:14:33;14.30;;;10.67;;
69795;SDS011;57073;45.650;9.612;2023-06-14T15:19:33;13.17;;;9.60;;
69795;SDS011;57073;45.650;9.612;2023-06-14T15:24:35;11.60;;;8.95;;
69795;SDS011;57073;45.650;9.612;2023-06-14T15:29:36;11.57;;;7.80;;
69795;SDS011;57073;45.650;9.612;2023-06-14T15:34:37;11.40;;;7.60;;
69795;SDS011;57073;45.650;9.612;2023-06-14T15:39:39;10.02;;;7.25;;
69795;SDS011;57073;45.650;9.612;2023-06-14T15:44:39;8.50;;;6.80;;
69795;SDS011;57073;45.650;9.612;2023-06-14T15:49:41;10.88;;;7.25;;
69795;SDS011;57073;45.650;9.612;2023-06-14T15:54:41;8.23;;;7.20;;
69795;SDS011;57073;45.650;9.612;2023-06-14T15:59:42;10.67;;;6.90;;
69795;SDS011;57073;45.650;9.612;2023-06-14T16:04:42;10.03;;;6.83;;
69795;SDS011;57073;45.650;9.612;2023-06-14T16:09:42;11.20;;;7.77;;
69795;SDS011;57073;45.650;9.612;2023-06-14T16:14:43;11.37;;;7.90;;
69795;SDS011;57073;45.650;9.612;2023-06-14T16:19:43;11.77;;;7.40;;
69795;SDS011;57073;45.650;9.612;2023-06-14T16:24:43;9.83;;;7.20;;
69795;SDS011;57073;45.650;9.612;2023-06-14T16:29:44;12.90;;;8.07;;
69795;SDS011;57073;45.650;9.612;2023-06-14T16:34:44;9.27;;;7.23;;
69795;SDS011;57073;45.650;9.612;2023-06-14T16:39:45;9.70;;;6.30;;
69795;SDS011;57073;45.650;9.612;2023-06-14T16:44:45;8.30;;;6.67;;
69795;SDS011;57073;45.650;9.612;2023-06-14T16:49:45;8.13;;;6.67;;
69795;SDS011;57073;45.650;9.612;2023-06-14T16:54:46;9.00;;;6.50;;
69795;SDS011;57073;45.650;9.612;2023-06-14T16:59:46;7.20;;;6.05;;
69795;SDS011;57073;45.650;9.612;2023-06-14T17:04:46;8.77;;;6.50;;
69795;SDS011;57073;45.650;9.612;2023-06-14T17:09:47;7.45;;;6.18;;
69795;SDS011;57073;45.650;9.612;2023-06-14T17:14:47;6.30;;;5.43;;
69795;SDS011;57073;45.650;9.612;2023-06-14T17:19:48;7.23;;;5.37;;
69795;SDS011;57073;45.650;9.612;2023-06-14T17:24:48;10.20;;;5.20;;
69795;SDS011;57073;45.650;9.612;2023-06-14T17:29:49;6.57;;;4.50;;
69795;SDS011;57073;45.650;9.612;2023-06-14T17:34:49;7.83;;;5.00;;
69795;SDS011;57073;45.650;9.612;2023-06-14T17:39:50;8.47;;;6.37;;
69795;SDS011;57073;45.650;9.612;2023-06-14T17:44:50;6.30;;;4.77;;
69795;SDS011;57073;45.650;9.612;2023-06-14T17:49:52;6.80;;;4.55;;
69795;SDS011;57073;45.650;9.612;2023-06-14T17:54:53;6.97;;;4.57;;
69795;SDS011;57073;45.650;9.612;2023-06-14T17:59:54;8.53;;;3.90;;
69795;SDS011;57073;45.650;9.612;2023-06-14T18:04:57;6.50;;;4.03;;
69795;SDS011;57073;45.650;9.612;2023-06-14T18:09:57;6.07;;;4.10;;
69795;SDS011;57073;45.650;9.612;2023-06-14T18:14:57;6.27;;;4.40;;
69795;SDS011;57073;45.650;9.612;2023-06-14T18:19:57;7.97;;;4.63;;
69795;SDS011;57073;45.650;9.612;2023-06-14T18:24:58;4.85;;;3.95;;
69795;SDS011;57073;45.650;9.612;2023-06-14T18:29:58;6.60;;;4.17;;
69795;SDS011;57073;45.650;9.612;2023-06-14T18:34:59;8.17;;;5.87;;
69795;SDS011;57073;45.650;9.612;2023-06-14T18:39:59;8.77;;;5.30;;
69795;SDS011;57073;45.650;9.612;2023-06-14T18:44:59;8.93;;;5.43;;
69795;SDS011;57073;45.650;9.612;2023-06-14T18:50:00;7.73;;;4.97;;
69795;SDS011;57073;45.650;9.612;2023-06-14T18:55:01;6.60;;;5.00;;
69795;SDS011;57073;45.650;9.612;2023-06-14T19:00:01;8.73;;;5.00;;
69795;SDS011;57073;45.650;9.612;2023-06-14T19:05:05;7.47;;;5.47;;
69795;SDS011;57073;45.650;9.612;2023-06-14T19:10:06;10.23;;;5.70;;
69795;SDS011;57073;45.650;9.612;2023-06-14T19:15:07;7.50;;;5.93;;
69795;SDS011;57073;45.650;9.612;2023-06-14T19:20:08;7.53;;;5.07;;
69795;SDS011;57073;45.650;9.612;2023-06-14T19:25:08;8.73;;;5.87;;
69795;SDS011;57073;45.650;9.612;2023-06-14T19:30:09;6.30;;;5.50;;
69795;SDS011;57073;45.650;9.612;2023-06-14T19:35:10;8.13;;;5.80;;
69795;SDS011;57073;45.650;9.612;2023-06-14T19:40:10;8.43;;;5.87;;
69795;SDS011;57073;45.650;9.612;2023-06-14T19:45:11;9.13;;;6.27;;
69795;SDS011;57073;45.650;9.612;2023-06-14T19:50:13;9.45;;;6.68;;
69795;SDS011;57073;45.650;9.612;2023-06-14T19:55:13;8.47;;;6.43;;
69795;SDS011;57073;45.650;9.612;2023-06-14T20:00:14;9.77;;;6.30;;
69795;SDS011;57073;45.650;9.612;2023-06-14T20:05:14;10.33;;;6.67;;
69795;SDS011;57073;45.650;9.612;2023-06-14T20:10:15;7.37;;;6.07;;
69795;SDS011;57073;45.650;9.612;2023-06-14T20:15:15;8.17;;;6.00;;
69795;SDS011;57073;45.650;9.612;2023-06-14T20:20:15;8.97;;;6.57;;
69795;SDS011;57073;45.650;9.612;2023-06-14T20:25:16;9.93;;;6.77;;
69795;SDS011;57073;45.650;9.612;2023-06-14T20:30:17;10.02;;;6.40;;
69795;SDS011;57073;45.650;9.612;2023-06-14T20:35:18;9.77;;;7.17;;
69795;SDS011;57073;45.650;9.612;2023-06-14T20:40:19;11.47;;;6.90;;
69795;SDS011;57073;45.650;9.612;2023-06-14T20:45:23;11.00;;;7.20;;
69795;SDS011;57073;45.650;9.612;2023-06-14T20:50:25;9.30;;;6.90;;
69795;SDS011;57073;45.650;9.612;2023-06-14T20:55:26;10.40;;;7.87;;
69795;SDS011;57073;45.650;9.612;2023-06-14T21:00:28;12.60;;;8.97;;
69795;SDS011;57073;45.650;9.612;2023-06-14T21:05:29;12.57;;;7.67;;
69795;SDS011;57073;45.650;9.612;2023-06-14T21:10:30;11.90;;;8.25;;
69795;SDS011;57073;45.650;9.612;2023-06-14T21:15:31;10.30;;;7.70;;
69795;SDS011;57073;45.650;9.612;2023-06-14T21:20:31;10.43;;;7.10;;
69795;SDS011;57073;45.650;9.612;2023-06-14T21:25:31;13.07;;;8.40;;
69795;SDS011;57073;45.650;9.612;2023-06-14T21:30:32;13.97;;;8.97;;
69795;SDS011;57073;45.650;9.612;2023-06-14T21:35:36;12.13;;;8.57;;
69795;SDS011;57073;45.650;9.612;2023-06-14T21:40:36;14.33;;;8.40;;
69795;SDS011;57073;45.650;9.612;2023-06-14T21:45:37;13.50;;;8.30;;
69795;SDS011;57073;45.650;9.612;2023-06-14T21:50:37;12.00;;;8.23;;
69795;SDS011;57073;45.650;9.612;2023-06-14T21:55:39;9.57;;;7.47;;
69795;SDS011;57073;45.650;9.612;2023-06-14T22:00:39;10.65;;;7.25;;
69795;SDS011;57073;45.650;9.612;2023-06-14T22:05:40;12.70;;;7.20;;
69795;SDS011;57073;45.650;9.612;2023-06-14T22:10:41;9.50;;;7.00;;
69795;SDS011;57073;45.650;9.612;2023-06-14T22:15:41;12.40;;;7.83;;
69795;SDS011;57073;45.650;9.612;2023-06-14T22:20:45;10.30;;;7.45;;
69795;SDS011;57073;45.650;9.612;2023-06-14T22:25:45;9.43;;;6.80;;
69795;SDS011;57073;45.650;9.612;2023-06-14T22:30:45;9.10;;;7.00;;
69795;SDS011;57073;45.650;9.612;2023-06-14T22:35:48;8.43;;;6.32;;
69795;SDS011;57073;45.650;9.612;2023-06-14T22:40:49;9.97;;;6.67;;
69795;SDS011;57073;45.650;9.612;2023-06-14T22:45:50;9.17;;;6.30;;
69795;SDS011;57073;45.650;9.612;2023-06-14T22:50:51;8.50;;;6.20;;
69795;SDS011;57073;45.650;9.612;2023-06-14T22:55:51;9.20;;;6.40;;
69795;SDS011;57073;45.650;9.612;2023-06-14T23:00:51;9.53;;;6.33;;
69795;SDS011;57073;45.650;9.612;2023-06-14T23:05:53;10.73;;;7.18;;
69795;SDS011;57073;45.650;9.612;2023-06-14T23:10:56;10.57;;;7.05;;
69795;SDS011;57073;45.650;9.612;2023-06-14T23:15:57;10.80;;;7.33;;
69795;SDS011;57073;45.650;9.612;2023-06-14T23:20:57;11.83;;;6.40;;
69795;SDS011;57073;45.650;9.612;2023-06-14T23:25:58;6.47;;;5.00;;
69795;SDS011;57073;45.650;9.612;2023-06-14T23:30:59;5.28;;;4.03;;
69795;SDS011;57073;45.650;9.612;2023-06-14T23:36:01;4.67;;;3.47;;
69795;SDS011;57073;45.650;9.612;2023-06-14T23:41:03;7.17;;;4.03;;
69795;SDS011;57073;45.650;9.612;2023-06-14T23:46:05;6.13;;;3.70;;
69795;SDS011;57073;45.650;9.612;2023-06-14T23:51:05;5.23;;;3.53;;
69795;SDS011;57073;45.650;9.612;2023-06-14T23:56:06;5.57;;;3.47;;
